Time;durP1;ratioP1;P1;durP2;ratioP2;P2;SDS_P1;SDS_P2;PMS_P1;PMS_P2;Temp;Humidity;BMP_temperature;BMP_pressure;BME280_temperature;BME280_humidity;BME280_pressure;Samples;Min_cycle;Max_cycle;Signal;HPM_P1;HPM_P2
2024/03/28 00:00:07;;;;;;;24.50;13.60;;;;;;;-146.25;100.00;52422.94;2105850;28;20040;-66
2024/03/28 00:01:09;;;;;;;19.15;12.82;;;;;;;-146.25;100.00;52427.00;2105955;28;20314;-66
2024/03/28 00:02:11;;;;;;;19.45;12.48;;;;;;;-146.25;100.00;52416.84;2097468;28;20043;-66
2024/03/28 00:03:11;;;;;;;20.20;12.77;;;;;;;-146.25;100.00;52414.84;2105980;28;20041;-66
2024/03/28 00:04:12;;;;;;;18.40;12.38;;;;;;;-146.25;100.00;52445.25;2097004;28;20846;-66
2024/03/28 00:05:15;;;;;;;23.30;13.90;;;;;;;-146.25;100.00;52437.13;2097589;28;20045;-65
2024/03/28 00:06:16;;;;;;;18.67;12.57;;;;;;;-146.25;100.00;52416.84;2097322;28;20103;-66
2024/03/28 00:07:17;;;;;;;19.02;12.48;;;;;;;-146.25;100.00;52414.84;2097451;28;20037;-66
2024/03/28 00:08:18;;;;;;;22.83;14.07;;;;;;;-146.25;100.00;52398.59;2097399;28;20044;-65
2024/03/28 00:09:19;;;;;;;18.48;12.60;;;;;;;-146.25;100.00;52384.41;2097611;28;20590;-66
2024/03/28 00:10:20;;;;;;;22.73;14.25;;;;;;;-146.25;100.00;52420.91;2097045;28;20914;-67
2024/03/28 00:11:23;;;;;;;27.85;15.60;;;;;;;-146.25;100.00;52414.84;2097720;28;20853;-66
2024/03/28 00:12:24;;;;;;;20.92;14.13;;;;;;;-146.25;100.00;52427.00;2097277;28;20029;-67
2024/03/28 00:13:27;;;;;;;21.48;14.35;;;;;;;-146.25;100.00;52410.78;2097485;28;20041;-66
2024/03/28 00:14:30;;;;;;;25.38;14.68;;;;;;;-146.25;100.00;52429.03;2097784;28;20037;-67
2024/03/28 00:15:31;;;;;;;28.30;16.02;;;;;;;-146.25;100.00;52429.03;2097725;28;20138;-67
2024/03/28 00:16:32;;;;;;;30.30;16.08;;;;;;;-146.25;100.00;52406.72;2097245;28;20381;-66
2024/03/28 00:17:33;;;;;;;23.98;15.23;;;;;;;-146.25;100.00;52392.53;2097599;28;20052;-67
2024/03/28 00:18:37;;;;;;;25.55;15.55;;;;;;;-146.25;100.00;52394.56;2097056;28;20041;-67
2024/03/28 00:19:38;;;;;;;28.40;16.52;;;;;;;-146.25;100.00;52402.66;2097760;28;20882;-67
2024/03/28 00:20:41;;;;;;;29.25;16.35;;;;;;;-146.25;100.00;52433.06;2097119;28;20045;-67
2024/03/28 00:21:45;;;;;;;29.52;17.70;;;;;;;-146.25;100.00;52424.97;2105837;28;20935;-66
2024/03/28 00:22:45;;;;;;;25.52;17.00;;;;;;;-146.25;100.00;52412.81;2096995;28;20072;-66
2024/03/28 00:23:46;;;;;;;32.08;17.30;;;;;;;-146.25;100.00;52431.06;2089497;28;20523;-66
2024/03/28 00:24:47;;;;;;;28.60;16.67;;;;;;;-146.25;100.00;52433.06;2096509;28;20443;-65
2024/03/28 00:25:57;;;;;;;26.75;16.30;;;;;;;-146.25;100.00;52418.88;2097620;28;20076;-65
2024/03/28 00:26:58;;;;;;;27.30;15.90;;;;;;;-146.25;100.00;52396.59;2106907;28;20044;-66
2024/03/28 00:28:02;;;;;;;30.83;17.48;;;;;;;-146.25;100.00;52372.25;2113456;28;20542;-66
2024/03/28 00:29:03;;;;;;;33.53;16.83;;;;;;;-146.25;100.00;52420.91;2097189;28;20033;-66
2024/03/28 00:30:04;;;;;;;32.05;16.52;;;;;;;-146.25;100.00;52412.81;2097328;28;20053;-66
2024/03/28 00:31:09;;;;;;;31.10;17.05;;;;;;;-146.25;100.00;52382.38;2096927;28;20041;-66
2024/03/28 00:32:10;;;;;;;33.65;17.88;;;;;;;-146.25;100.00;52366.16;2098016;28;20106;-67
2024/03/28 00:33:11;;;;;;;29.42;16.90;;;;;;;-146.25;100.00;52410.78;2097709;28;20080;-66
2024/03/28 00:34:12;;;;;;;30.75;16.83;;;;;;;-146.25;100.00;52392.53;2097042;28;20451;-68
2024/03/28 00:35:13;;;;;;;30.20;19.15;;;;;;;-146.25;100.00;52398.59;2096647;28;20045;-66
2024/03/28 00:36:14;;;;;;;34.25;19.38;;;;;;;-146.25;100.00;52402.66;2105960;28;20037;-66
2024/03/28 00:37:15;;;;;;;37.08;18.67;;;;;;;-146.25;100.00;52424.97;2105586;28;20553;-68
2024/03/28 00:38:16;;;;;;;30.08;17.35;;;;;;;-146.25;100.00;52416.84;2097247;28;20049;-65
2024/03/28 00:39:17;;;;;;;36.03;18.98;;;;;;;-146.25;100.00;52372.25;2096377;28;20033;-65
2024/03/28 00:40:18;;;;;;;37.08;19.45;;;;;;;-146.25;100.00;52439.16;2096963;28;20041;-66
2024/03/28 00:41:19;;;;;;;36.95;20.23;;;;;;;-146.25;100.00;52418.88;2097121;28;20049;-66
2024/03/28 00:42:22;;;;;;;32.65;19.42;;;;;;;-146.25;100.00;52400.63;2097218;28;20551;-66
2024/03/28 00:43:23;;;;;;;37.45;18.17;;;;;;;-146.25;100.00;52410.78;2088683;28;20053;-66
2024/03/28 00:44:24;;;;;;;35.25;19.33;;;;;;;-146.25;100.00;52398.59;2088715;28;20117;-66
2024/03/28 00:45:24;;;;;;;41.50;20.92;;;;;;;-146.25;100.00;52354.00;2097084;28;20049;-67
2024/03/28 00:46:25;;;;;;;38.65;20.13;;;;;;;-146.25;100.00;52388.47;2097157;28;20048;-66
2024/03/28 00:47:26;;;;;;;44.53;21.05;;;;;;;-146.25;100.00;52398.59;2096768;28;20057;-66
2024/03/28 00:48:27;;;;;;;43.42;21.05;;;;;;;-146.25;100.00;52396.59;2097178;28;20045;-66
2024/03/28 00:49:29;;;;;;;46.05;22.58;;;;;;;-146.25;100.00;52384.41;2096566;28;20048;-67
2024/03/28 00:50:33;;;;;;;53.10;22.05;;;;;;;-146.25;100.00;52372.25;2097565;28;21055;-67
2024/03/28 00:51:34;;;;;;;45.67;21.27;;;;;;;-146.25;100.00;52408.75;2097287;28;20060;-66
2024/03/28 00:52:34;;;;;;;47.10;22.45;;;;;;;-146.25;100.00;52372.25;2097358;28;20045;-66
2024/03/28 00:53:35;;;;;;;47.05;22.33;;;;;;;-146.25;100.00;52388.47;2096963;28;20041;-66
2024/03/28 00:54:36;;;;;;;50.38;22.60;;;;;;;-146.25;100.00;52441.19;2096939;28;20041;-65
2024/03/28 00:55:39;;;;;;;54.63;24.95;;;;;;;-146.25;100.00;52380.38;2105261;28;20079;-66
2024/03/28 00:56:40;;;;;;;60.08;26.02;;;;;;;-146.25;100.00;52372.25;2105335;28;20032;-66
2024/03/28 00:57:41;;;;;;;56.40;24.98;;;;;;;-146.25;100.00;52396.59;2096901;28;20064;-65
2024/03/28 00:58:41;;;;;;;54.25;26.02;;;;;;;-146.25;100.00;52400.63;2105064;28;20040;-67
2024/03/28 00:59:44;;;;;;;45.30;24.58;;;;;;;-146.25;100.00;52384.41;2105187;28;20395;-67
2024/03/28 01:00:48;;;;;;;58.65;25.63;;;;;;;-146.25;100.00;52394.56;2097364;28;20791;-67
2024/03/28 01:01:48;;;;;;;54.05;25.00;;;;;;;-146.25;100.00;52412.81;2105394;28;20967;-66
2024/03/28 01:02:49;;;;;;;57.08;26.88;;;;;;;-146.25;100.00;52388.47;2097054;28;20033;-65
2024/03/28 01:03:50;;;;;;;70.60;28.42;;;;;;;-146.25;100.00;52380.38;2088645;28;20073;-66
2024/03/28 01:04:51;;;;;;;62.95;27.52;;;;;;;-146.25;100.00;52378.34;2088357;28;20520;-66
2024/03/28 01:05:59;;;;;;;67.82;27.10;;;;;;;-146.25;100.00;52410.78;2096914;28;20895;-66
2024/03/28 01:07:03;;;;;;;69.22;27.00;;;;;;;-146.25;100.00;52394.56;2098289;28;20036;-66
2024/03/28 01:08:05;;;;;;;62.92;26.23;;;;;;;-146.25;100.00;52386.44;2097280;28;20048;-67
2024/03/28 01:09:05;;;;;;;68.78;26.52;;;;;;;-146.25;100.00;52410.78;2097397;28;20021;-66
2024/03/28 01:10:09;;;;;;;62.25;28.30;;;;;;;-146.25;100.00;52398.59;2096595;28;20045;-67
2024/03/28 01:11:10;;;;;;;75.75;28.48;;;;;;;-146.25;100.00;52433.06;2097901;28;20033;-66
2024/03/28 01:12:11;;;;;;;64.05;28.30;;;;;;;-146.25;100.00;52392.53;2096964;28;20058;-67
2024/03/28 01:13:12;;;;;;;75.00;27.77;;;;;;;-146.25;100.00;52388.47;2101484;28;20115;-66
2024/03/28 01:14:13;;;;;;;66.88;27.95;;;;;;;-146.25;100.00;52394.56;2113615;28;20960;-65
2024/03/28 01:15:17;;;;;;;64.20;27.88;;;;;;;-146.25;100.00;52372.25;2105173;28;20037;-65
2024/03/28 01:16:18;;;;;;;70.63;28.58;;;;;;;-146.25;100.00;52412.81;2088975;28;20041;-65
2024/03/28 01:17:19;;;;;;;68.57;28.20;;;;;;;-146.25;100.00;52384.41;2096718;28;20041;-66
2024/03/28 01:18:20;;;;;;;73.03;28.60;;;;;;;-146.25;100.00;52384.41;2105052;28;20426;-66
2024/03/28 01:19:21;;;;;;;76.60;30.00;;;;;;;-146.25;100.00;52382.38;2105178;28;20041;-66
2024/03/28 01:20:21;;;;;;;85.00;29.27;;;;;;;-146.25;100.00;52364.13;2113583;28;20100;-67
2024/03/28 01:21:22;;;;;;;80.47;31.48;;;;;;;-146.25;100.00;52410.78;2096328;28;20537;-68
2024/03/28 01:22:23;;;;;;;88.43;31.23;;;;;;;-146.25;100.00;52410.78;2105612;28;20071;-66
2024/03/28 01:23:24;;;;;;;81.32;30.00;;;;;;;-146.25;100.00;52418.88;2105182;28;20526;-66
2024/03/28 01:24:25;;;;;;;65.55;29.52;;;;;;;-146.25;100.00;52396.59;2097007;28;20411;-67
2024/03/28 01:25:25;;;;;;;74.20;30.20;;;;;;;-146.25;100.00;52404.69;2096416;28;20049;-66
2024/03/28 01:26:26;;;;;;;74.35;28.25;;;;;;;-146.25;100.00;52380.38;2096950;28;20432;-66
2024/03/28 01:27:27;;;;;;;64.07;27.00;;;;;;;-146.25;100.00;52382.38;2096665;28;20086;-66
2024/03/28 01:28:28;;;;;;;70.18;28.52;;;;;;;-146.25;100.00;52376.31;2097051;28;20412;-66
2024/03/28 01:29:29;;;;;;;63.03;27.83;;;;;;;-146.25;100.00;52400.63;2096786;28;20426;-65
2024/03/28 01:30:30;;;;;;;64.80;27.17;;;;;;;-146.25;100.00;52372.25;2097116;28;20041;-65
2024/03/28 01:31:31;;;;;;;67.18;26.73;;;;;;;-146.25;100.00;52404.69;2096401;28;20070;-65
2024/03/28 01:32:31;;;;;;;68.43;27.52;;;;;;;-146.25;100.00;52408.75;2096455;28;20041;-65
2024/03/28 01:33:32;;;;;;;63.63;26.58;;;;;;;-146.25;100.00;52386.44;2104955;28;20033;-66
2024/03/28 01:34:35;;;;;;;63.03;27.10;;;;;;;-146.25;100.00;52390.50;2105178;28;20791;-66
2024/03/28 01:35:36;;;;;;;63.25;27.50;;;;;;;-146.25;100.00;52435.09;2088456;28;20068;-66
2024/03/28 01:36:37;;;;;;;56.42;26.00;;;;;;;-146.25;100.00;52410.78;2088819;28;20553;-68
2024/03/28 01:37:39;;;;;;;55.30;26.58;;;;;;;-146.25;100.00;52400.63;2096574;28;20041;-67
2024/03/28 01:38:40;;;;;;;50.67;23.95;;;;;;;-146.25;100.00;52388.47;2097661;28;20160;-66
2024/03/28 01:39:41;;;;;;;59.80;25.17;;;;;;;-146.25;100.00;52398.59;2096622;28;20041;-65
2024/03/28 01:40:44;;;;;;;56.70;25.73;;;;;;;-146.25;100.00;52406.72;2096586;28;20087;-66
2024/03/28 01:41:50;;;;;;;57.25;25.90;;;;;;;-146.25;100.00;52398.59;2096763;28;20949;-68
2024/03/28 01:42:51;;;;;;;58.47;25.23;;;;;;;-146.25;100.00;52382.38;2097672;28;20946;-67
2024/03/28 01:43:52;;;;;;;54.92;25.05;;;;;;;-146.25;100.00;52364.13;2096171;28;20073;-67
2024/03/28 01:44:53;;;;;;;50.17;24.40;;;;;;;-146.25;100.00;52429.03;2096755;28;20037;-67
2024/03/28 01:45:54;;;;;;;51.38;23.70;;;;;;;-146.25;100.00;52420.91;2096666;28;20126;-67
2024/03/28 01:46:56;;;;;;;50.55;24.77;;;;;;;-146.25;100.00;52410.78;2105328;28;20048;-67
2024/03/28 01:47:57;;;;;;;52.33;23.75;;;;;;;-146.25;100.00;52404.69;2104593;28;20082;-68
2024/03/28 01:48:58;;;;;;;49.95;22.98;;;;;;;-146.25;100.00;52392.53;2088534;28;20456;-67
2024/03/28 01:50:00;;;;;;;49.70;23.45;;;;;;;-146.25;100.00;52408.75;2088189;28;20038;-67
2024/03/28 01:51:01;;;;;;;48.67;23.27;;;;;;;-146.25;100.00;52380.38;2095820;28;20052;-67
2024/03/28 01:52:03;;;;;;;46.95;22.63;;;;;;;-146.25;100.00;52370.22;2096516;28;20933;-68
2024/03/28 01:53:07;;;;;;;49.53;21.20;;;;;;;-146.25;100.00;52427.00;2097061;28;20088;-67
2024/03/28 01:54:11;;;;;;;43.70;20.33;;;;;;;-146.25;100.00;52433.06;2104655;28;20040;-66
2024/03/28 01:55:12;;;;;;;39.70;18.85;;;;;;;-146.25;100.00;52402.66;2088483;28;20084;-67
2024/03/28 01:56:16;;;;;;;41.53;20.48;;;;;;;-146.25;100.00;52392.53;2088075;28;20946;-67
2024/03/28 01:57:17;;;;;;;43.67;19.20;;;;;;;-146.25;100.00;52400.63;2096892;28;20115;-67
2024/03/28 01:58:18;;;;;;;44.15;19.83;;;;;;;-146.25;100.00;52439.16;2096704;28;20044;-68
2024/03/28 01:59:19;;;;;;;41.17;20.58;;;;;;;-146.25;100.00;52414.84;2096844;28;20056;-67
2024/03/28 02:00:20;;;;;;;39.22;19.00;;;;;;;-146.25;100.00;52382.38;2096412;28;20036;-67
2024/03/28 02:01:22;;;;;;;41.47;20.55;;;;;;;-146.25;100.00;52427.00;2096816;28;20044;-67
2024/03/28 02:02:25;;;;;;;38.38;19.10;;;;;;;-146.25;100.00;52390.50;2096137;28;20029;-67
2024/03/28 02:03:25;;;;;;;43.38;19.73;;;;;;;-146.25;100.00;52422.94;2087873;28;20045;-67
2024/03/28 02:04:27;;;;;;;41.60;18.80;;;;;;;-146.25;100.00;52433.06;2080428;28;20091;-67
2024/03/28 02:05:27;;;;;;;44.55;18.70;;;;;;;-146.25;100.00;52376.31;2096746;28;20041;-67
2024/03/28 02:06:29;;;;;;;41.70;19.10;;;;;;;-146.25;100.00;52418.88;2096472;28;20040;-66
2024/03/28 02:07:30;;;;;;;37.65;18.58;;;;;;;-146.25;100.00;52435.09;2096719;28;20072;-67
2024/03/28 02:08:31;;;;;;;36.30;17.73;;;;;;;-146.25;100.00;52408.75;2096706;28;20044;-66
2024/03/28 02:09:33;;;;;;;39.25;19.67;;;;;;;-146.25;100.00;52414.84;2088076;28;20131;-68
2024/03/28 02:10:35;;;;;;;39.30;18.45;;;;;;;-146.25;100.00;52400.63;2088609;28;20914;-68
2024/03/28 02:11:36;;;;;;;38.67;17.60;;;;;;;-146.25;100.00;52378.34;2088354;28;20805;-67
2024/03/28 02:12:37;;;;;;;35.35;16.02;;;;;;;-146.25;100.00;52402.66;2088337;28;20073;-67
2024/03/28 02:13:40;;;;;;;33.75;16.00;;;;;;;-146.25;100.00;52412.81;2096146;28;20033;-68
2024/03/28 02:14:41;;;;;;;31.92;15.68;;;;;;;-146.25;100.00;52402.66;2096861;28;20055;-67
2024/03/28 02:15:41;;;;;;;33.17;16.00;;;;;;;-146.25;100.00;52396.59;2096522;28;20044;-67
2024/03/28 02:16:47;;;;;;;35.47;15.50;;;;;;;-146.25;100.00;52420.91;2096602;28;20037;-67
2024/03/28 02:17:50;;;;;;;33.90;16.05;;;;;;;-146.25;100.00;52455.38;2096751;28;20025;-67
2024/03/28 02:18:58;;;;;;;33.25;15.13;;;;;;;-146.25;100.00;52400.63;2096587;28;20933;-67
2024/03/28 02:19:58;;;;;;;29.20;15.23;;;;;;;-146.25;100.00;52424.97;2096060;28;20041;-67
2024/03/28 02:20:59;;;;;;;27.27;15.38;;;;;;;-146.25;100.00;52416.84;2088268;28;20116;-67
2024/03/28 02:22:01;;;;;;;31.58;14.65;;;;;;;-146.25;100.00;52408.75;2096687;28;20047;-68
2024/03/28 02:23:02;;;;;;;26.65;14.38;;;;;;;-146.25;100.00;52465.53;2096765;28;20107;-68
2024/03/28 02:24:03;;;;;;;30.52;14.80;;;;;;;-146.25;100.00;52451.31;2096409;28;20049;-67
2024/03/28 02:25:09;;;;;;;26.75;14.00;;;;;;;-146.25;100.00;52376.31;2096564;28;20084;-67
2024/03/28 02:26:10;;;;;;;28.05;14.18;;;;;;;-146.25;100.00;52392.53;2097276;28;20049;-67
2024/03/28 02:27:11;;;;;;;25.48;14.02;;;;;;;-146.25;100.00;52424.97;2096507;28;20123;-67
2024/03/28 02:28:11;;;;;;;29.38;13.18;;;;;;;-146.25;100.00;52408.75;2104948;28;20048;-67
2024/03/28 02:29:12;;;;;;;25.48;13.30;;;;;;;-146.25;100.00;52429.03;2096417;28;20420;-67
2024/03/28 02:30:13;;;;;;;29.45;12.82;;;;;;;-146.25;100.00;52420.91;2096224;28;20041;-67
2024/03/28 02:31:15;;;;;;;24.17;11.38;;;;;;;-146.25;100.00;52437.13;2097363;28;20770;-67
2024/03/28 02:32:15;;;;;;;23.25;11.80;;;;;;;-146.25;100.00;52412.81;2096400;28;20064;-66
2024/03/28 02:33:17;;;;;;;22.40;12.00;;;;;;;-146.25;100.00;52386.44;2096374;28;20976;-67
2024/03/28 02:34:18;;;;;;;25.73;11.45;;;;;;;-146.25;100.00;52386.44;2087785;28;20042;-67
2024/03/28 02:35:18;;;;;;;25.55;11.93;;;;;;;-146.25;100.00;52400.63;2096479;28;20950;-67
2024/03/28 02:36:19;;;;;;;25.45;12.80;;;;;;;-146.25;100.00;52392.53;2096402;28;20053;-67
2024/03/28 02:37:20;;;;;;;22.30;11.95;;;;;;;-146.25;100.00;52441.19;2096507;28;20041;-66
2024/03/28 02:38:21;;;;;;;25.02;11.48;;;;;;;-146.25;100.00;52429.03;2096397;28;20194;-66
2024/03/28 02:39:22;;;;;;;18.73;9.55;;;;;;;-146.25;100.00;52457.41;2096371;28;20155;-67
2024/03/28 02:40:24;;;;;;;20.88;9.88;;;;;;;-146.25;100.00;52418.88;2104380;28;20043;-67
2024/03/28 02:41:27;;;;;;;20.65;10.95;;;;;;;-146.25;100.00;52382.38;2096635;28;20044;-67
2024/03/28 02:42:28;;;;;;;19.10;10.35;;;;;;;-146.25;100.00;52382.38;2095591;28;20033;-67
2024/03/28 02:43:30;;;;;;;23.35;9.77;;;;;;;-146.25;100.00;52422.94;2096835;28;20049;-67
2024/03/28 02:44:31;;;;;;;16.30;7.85;;;;;;;-146.25;100.00;52424.97;2096800;28;20821;-67
2024/03/28 02:45:32;;;;;;;18.33;8.32;;;;;;;-146.25;100.00;52471.59;2096531;28;20048;-67
2024/03/28 02:46:33;;;;;;;19.60;9.30;;;;;;;-146.25;100.00;52376.31;2096321;28;20033;-67
2024/03/28 02:47:33;;;;;;;16.40;8.70;;;;;;;-146.25;100.00;52400.63;2096696;28;20040;-67
2024/03/28 02:48:36;;;;;;;16.10;8.40;;;;;;;-146.25;100.00;52388.47;2095866;28;20112;-67
2024/03/28 02:49:37;;;;;;;16.65;8.10;;;;;;;-146.25;100.00;52427.00;2088303;28;20870;-66
2024/03/28 02:50:38;;;;;;;16.00;8.07;;;;;;;-146.25;100.00;52441.19;2088083;28;20049;-67
2024/03/28 02:51:39;;;;;;;16.05;8.07;;;;;;;-146.25;100.00;52437.13;2096832;28;20041;-67
2024/03/28 02:52:40;;;;;;;16.00;7.95;;;;;;;-146.25;100.00;52382.38;2104470;28;20041;-66
2024/03/28 02:53:43;;;;;;;16.45;8.40;;;;;;;-146.25;100.00;52398.59;2096597;28;20033;-66
2024/03/28 02:54:44;;;;;;;14.73;8.02;;;;;;;-146.25;100.00;52394.56;2095860;28;20052;-67
2024/03/28 02:55:52;;;;;;;17.77;7.72;;;;;;;-146.25;100.00;52382.38;2104853;28;20028;-67
2024/03/28 02:56:53;;;;;;;18.50;8.43;;;;;;;-146.25;100.00;52386.44;2097098;28;20037;-67
2024/03/28 02:57:54;;;;;;;17.23;8.23;;;;;;;-146.25;100.00;52412.81;2096141;28;20091;-66
2024/03/28 02:58:57;;;;;;;14.18;7.57;;;;;;;-146.25;100.00;52445.25;2088081;28;20041;-67
2024/03/28 03:00:00;;;;;;;14.05;7.80;;;;;;;-146.25;100.00;52394.56;2097235;28;20036;-67
2024/03/28 03:01:04;;;;;;;16.67;8.48;;;;;;;-146.25;100.00;52422.94;2095290;28;20890;-68
2024/03/28 03:02:04;;;;;;;17.30;8.27;;;;;;;-146.25;100.00;52424.97;2096879;28;20044;-66
2024/03/28 03:03:05;;;;;;;18.52;8.60;;;;;;;-146.25;100.00;52437.13;2087699;28;20419;-68
2024/03/28 03:04:06;;;;;;;19.08;8.68;;;;;;;-146.25;100.00;52420.91;2088289;28;20041;-65
2024/03/28 03:05:07;;;;;;;15.50;7.80;;;;;;;-146.25;100.00;52445.25;2104346;28;20041;-65
2024/03/28 03:06:08;;;;;;;13.75;7.72;;;;;;;-146.25;100.00;52475.66;2104801;28;20032;-66
2024/03/28 03:07:10;;;;;;;15.80;7.97;;;;;;;-146.25;100.00;52437.13;2096473;28;20108;-66
2024/03/28 03:08:11;;;;;;;15.38;8.45;;;;;;;-146.25;100.00;52453.34;2088141;28;20034;-66
2024/03/28 03:09:12;;;;;;;14.63;7.88;;;;;;;-146.25;100.00;52416.84;2087630;28;20041;-65
2024/03/28 03:10:14;;;;;;;16.55;8.70;;;;;;;-146.25;100.00;52453.34;2095967;28;20448;-66
2024/03/28 03:11:15;;;;;;;17.88;8.55;;;;;;;-146.25;100.00;52418.88;2104251;28;20032;-66
2024/03/28 03:12:16;;;;;;;15.70;8.18;;;;;;;-146.25;100.00;52416.84;2113285;28;20044;-65
2024/03/28 03:13:17;;;;;;;16.95;9.13;;;;;;;-146.25;100.00;52420.91;2104323;28;20052;-65
2024/03/28 03:14:17;;;;;;;14.13;7.93;;;;;;;-146.25;100.00;52416.84;2088095;28;20037;-65
2024/03/28 03:15:19;;;;;;;15.40;7.88;;;;;;;-146.25;100.00;52400.63;2087911;28;20056;-65
2024/03/28 03:16:20;;;;;;;16.60;8.35;;;;;;;-146.25;100.00;52420.91;2096463;28;20096;-64
2024/03/28 03:17:20;;;;;;;15.63;8.75;;;;;;;-146.25;100.00;52384.41;2096092;28;20048;-65
2024/03/28 03:18:26;;;;;;;15.05;8.27;;;;;;;-146.25;100.00;52418.88;2104404;28;20123;-65
2024/03/28 03:19:26;;;;;;;15.73;8.48;;;;;;;-146.25;100.00;52427.00;2104486;28;20044;-65
2024/03/28 03:20:27;;;;;;;16.50;8.68;;;;;;;-146.25;100.00;52398.59;2096183;28;20099;-65
2024/03/28 03:21:31;;;;;;;17.30;8.05;;;;;;;-146.25;100.00;52388.47;2096419;28;20083;-65
2024/03/28 03:22:32;;;;;;;16.88;8.32;;;;;;;-146.25;100.00;52455.38;2104606;28;20491;-65
2024/03/28 03:23:46;;;;;;;12.75;7.00;;;;;;;-146.25;100.00;52445.25;2096091;28;20045;-63
2024/03/28 03:24:47;;;;;;;13.27;6.60;;;;;;;-146.25;100.00;52437.13;2097703;28;20890;-64
2024/03/28 03:25:59;;;;;;;13.27;7.57;;;;;;;-146.25;100.00;52396.59;2104596;28;20143;-67
2024/03/28 03:27:15;;;;;;;14.48;6.72;;;;;;;-146.25;100.00;52414.84;2104804;28;20033;-67
2024/03/28 03:34:55;;;;;;;11.18;6.15;;;;;;;-146.25;100.00;52445.25;2102044;28;20036;-65
2024/03/28 03:35:55;;;;;;;9.95;5.78;;;;;;;-146.25;100.00;52402.66;2104430;28;20128;-66
2024/03/28 03:36:56;;;;;;;13.20;6.05;;;;;;;-146.25;100.00;52435.09;2104399;28;20480;-67
2024/03/28 03:37:57;;;;;;;10.85;5.50;;;;;;;-146.25;100.00;52396.59;2104579;28;20536;-65
2024/03/28 03:38:58;;;;;;;11.32;5.50;;;;;;;-146.25;100.00;52447.28;2103984;28;20048;-66
2024/03/28 03:40:11;;;;;;;8.70;5.25;;;;;;;-146.25;100.00;52427.00;2103900;28;20033;-65
2024/03/28 03:41:14;;;;;;;10.52;5.57;;;;;;;-146.25;100.00;52422.94;2096198;28;20041;-66
2024/03/28 03:42:15;;;;;;;11.20;6.13;;;;;;;-146.25;100.00;52455.38;2087697;28;20046;-66
2024/03/28 03:43:16;;;;;;;11.13;6.10;;;;;;;-146.25;100.00;52400.63;2096188;28;20488;-65
2024/03/28 03:44:16;;;;;;;9.73;5.60;;;;;;;-146.25;100.00;52398.59;2104629;28;20048;-66
2024/03/28 03:45:20;;;;;;;9.98;5.80;;;;;;;-146.25;100.00;52431.06;2104263;28;20454;-66
2024/03/28 03:46:23;;;;;;;12.25;5.40;;;;;;;-146.25;100.00;52412.81;2104342;28;20033;-66
2024/03/28 03:47:24;;;;;;;9.40;5.30;;;;;;;-146.25;100.00;52404.69;2105363;28;20071;-65
2024/03/28 03:48:24;;;;;;;9.85;5.47;;;;;;;-146.25;100.00;52398.59;2104488;28;20148;-65
2024/03/28 03:49:25;;;;;;;9.52;5.15;;;;;;;-146.25;100.00;52414.84;2096076;28;20041;-65
2024/03/28 03:50:26;;;;;;;8.05;4.90;;;;;;;-146.25;100.00;52372.25;2096567;28;20376;-65
2024/03/28 03:51:28;;;;;;;11.18;4.82;;;;;;;-146.25;100.00;52396.59;2095695;28;20889;-65
2024/03/28 03:52:28;;;;;;;10.43;5.20;;;;;;;-146.25;100.00;52437.13;2096218;28;20138;-65
2024/03/28 03:53:29;;;;;;;10.80;5.82;;;;;;;-146.25;100.00;52396.59;2095817;28;20045;-65
2024/03/28 03:54:30;;;;;;;11.98;5.57;;;;;;;-146.25;100.00;52431.06;2096015;28;20495;-65
2024/03/28 03:55:31;;;;;;;10.05;5.50;;;;;;;-146.25;100.00;52400.63;2095592;28;20046;-65
2024/03/28 03:56:32;;;;;;;8.70;5.57;;;;;;;-146.25;100.00;52420.91;2104394;28;20437;-65
2024/03/28 03:57:32;;;;;;;9.23;5.38;;;;;;;-146.25;100.00;52418.88;2104221;28;20596;-66
2024/03/28 03:58:33;;;;;;;12.05;5.97;;;;;;;-146.25;100.00;52394.56;2087791;28;20049;-66
2024/03/28 03:59:36;;;;;;;9.35;5.35;;;;;;;-146.25;100.00;52416.84;2095765;28;20044;-65
2024/03/28 04:00:36;;;;;;;12.20;4.80;;;;;;;-146.25;100.00;52420.91;2095969;28;20052;-66
2024/03/28 04:01:37;;;;;;;10.75;5.03;;;;;;;-146.25;100.00;52412.81;2096112;28;20041;-66
2024/03/28 04:02:38;;;;;;;8.27;4.80;;;;;;;-146.25;100.00;52418.88;2104498;28;20117;-66
2024/03/28 04:03:39;;;;;;;10.95;5.78;;;;;;;-146.25;100.00;52424.97;2103799;28;20517;-66
2024/03/28 04:04:40;;;;;;;12.50;5.85;;;;;;;-146.25;100.00;52418.88;2104377;28;20051;-65
2024/03/28 04:05:40;;;;;;;8.23;5.57;;;;;;;-146.25;100.00;52435.09;2095432;28;20049;-65
2024/03/28 04:06:41;;;;;;;10.70;5.53;;;;;;;-146.25;100.00;52424.97;2096067;28;20045;-66
2024/03/28 04:07:43;;;;;;;10.10;5.53;;;;;;;-146.25;100.00;52404.69;2103985;28;20044;-66
2024/03/28 04:08:46;;;;;;;10.73;5.75;;;;;;;-146.25;100.00;52441.19;2104342;28;20111;-66
2024/03/28 04:09:47;;;;;;;8.52;5.22;;;;;;;-146.25;100.00;52435.09;2088037;28;20037;-66
2024/03/28 04:10:48;;;;;;;13.65;5.70;;;;;;;-146.25;100.00;52422.94;2095912;28;20041;-66
2024/03/28 04:11:50;;;;;;;7.88;4.40;;;;;;;-146.25;100.00;52443.22;2095680;28;20091;-66
2024/03/28 04:12:51;;;;;;;10.50;5.25;;;;;;;-146.25;100.00;52418.88;2096241;28;20029;-66
2024/03/28 04:13:52;;;;;;;8.68;4.68;;;;;;;-146.25;100.00;52396.59;2095762;28;20036;-66
2024/03/28 04:14:52;;;;;;;7.93;4.00;;;;;;;-146.25;100.00;52429.03;2097797;28;20534;-66
2024/03/28 04:15:53;;;;;;;9.48;4.03;;;;;;;-146.25;100.00;52390.50;2097326;28;20080;-66
2024/03/28 04:16:54;;;;;;;9.15;4.80;;;;;;;-146.25;100.00;52410.78;2097677;28;20041;-67
2024/03/28 04:17:57;;;;;;;7.47;4.55;;;;;;;-146.25;100.00;52420.91;2097045;28;20487;-66
2024/03/28 04:18:58;;;;;;;9.15;4.93;;;;;;;-146.25;100.00;52396.59;2097508;28;20254;-66
2024/03/28 04:19:59;;;;;;;9.25;4.38;;;;;;;-146.25;100.00;52408.75;2096900;28;20052;-66
2024/03/28 04:21:02;;;;;;;8.13;4.55;;;;;;;-146.25;100.00;52424.97;2105867;28;20041;-66
2024/03/28 04:22:03;;;;;;;11.77;4.95;;;;;;;-146.25;100.00;52441.19;2097223;28;20033;-67
2024/03/28 04:23:04;;;;;;;7.43;4.03;;;;;;;-146.25;100.00;52469.56;2105176;28;20045;-66
2024/03/28 04:24:05;;;;;;;7.07;4.40;;;;;;;-146.25;100.00;52427.00;2105684;28;20499;-66
2024/03/28 04:25:06;;;;;;;5.30;3.63;;;;;;;-146.25;100.00;52400.63;2105673;28;20439;-66
2024/03/28 04:26:08;;;;;;;6.97;4.07;;;;;;;-146.25;100.00;52424.97;2097091;28;20088;-66
2024/03/28 04:27:08;;;;;;;6.53;4.03;;;;;;;-146.25;100.00;52422.94;2097281;28;20045;-66
2024/03/28 04:28:09;;;;;;;7.93;3.65;;;;;;;-146.25;100.00;52429.03;2096906;28;20087;-65
2024/03/28 04:29:10;;;;;;;6.28;3.42;;;;;;;-146.25;100.00;52445.25;2097385;28;20515;-66
2024/03/28 04:30:11;;;;;;;9.38;4.10;;;;;;;-146.25;100.00;52431.06;2088972;28;20037;-66
2024/03/28 04:31:12;;;;;;;7.00;4.03;;;;;;;-146.25;100.00;52451.31;2089093;28;20135;-66
2024/03/28 04:32:13;;;;;;;4.93;3.22;;;;;;;-146.25;100.00;52416.84;2097352;28;20041;-67
2024/03/28 04:33:14;;;;;;;8.80;4.35;;;;;;;-146.25;100.00;52461.47;2096882;28;20045;-66
2024/03/28 04:34:15;;;;;;;8.57;4.60;;;;;;;-146.25;100.00;52416.84;2097501;28;20084;-66
2024/03/28 04:35:15;;;;;;;7.85;3.83;;;;;;;-146.25;100.00;52420.91;2096986;28;20069;-66
2024/03/28 04:36:16;;;;;;;5.05;3.33;;;;;;;-146.25;100.00;52445.25;2097634;28;20072;-63
2024/03/28 04:37:17;;;;;;;7.30;4.57;;;;;;;-146.25;100.00;52469.56;2105260;28;20472;-66
2024/03/28 04:38:18;;;;;;;9.20;4.90;;;;;;;-146.25;100.00;52429.03;2105300;28;20040;-66
2024/03/28 04:39:21;;;;;;;9.25;4.85;;;;;;;-146.25;100.00;52416.84;2096935;28;20037;-66
2024/03/28 04:40:22;;;;;;;8.73;4.68;;;;;;;-146.25;100.00;52437.13;2089377;28;20038;-65
2024/03/28 04:41:25;;;;;;;10.20;4.65;;;;;;;-146.25;100.00;52412.81;2096922;28;20060;-66
2024/03/28 04:42:26;;;;;;;6.55;4.20;;;;;;;-146.25;100.00;52424.97;2097176;28;20045;-65